Portada
METAR-TAF:

METAR-TAF

Aeroports :

Aeroport de Ouarzazate

Ouarzazate, Marroc

latitud: 30-56N, longitud: 006-54W, altitud: 1139 m

Observació

L'informe es va fer fa 23 minuts, a les 13:00 UTC
Vent 14 kt del Est/Sud-Est
Temperatura 35°C
Humitat 6%
Pressió 1012 hPa
Visibilitat: 4000 m
Pols estès

METAR: GMMZ 301300Z 12014KT 4000 DU NSC 35/M08 Q1012 NOSIG

Hora: 14:23 (13:23 UTC)

Pronòstic

L'informe es va fer fa 2 hores i 23 minuts, a les 11:00 UTC
Pronòstic vàlid del 30 a les 12 UTC al 31 a les 18 UTC
Vent 13 kt del Sud
Visibilitat: 4000 m
Pols estès
Temporalment
l' 30 a les 21 UTC al 31 a les 05 UTC
Vent 3 kt del Nord-Oest
Visibilitat: 4000 m
calitja

TAF: GMMZ 301100Z 3012/3118 17013KT 4000 DU NSC TEMPO 3021/3105 32003KT 4000 HZ

Observacions i pronòstics meteorològics de més de 4000 aeroports (METAR i TAF).

Les estacions disponibles són els punts grocs i vermells al mapa.

Posi el ratolí al punt desitjat per veure el nom de l'estació.

Feu clic per veure les observacions i els pronòstics meteorològics.

Per canviar el mapa: feu clic els botons verds amb una creu de color negre per apropar; al botó verd amb un guió per allunyar la imatge; o en les fletxes verdes per a mapes adjacents.


METAR-TAF: